Time;durP1;ratioP1;P1;durP2;ratioP2;P2;SDS_P1;SDS_P2;PMS_P1;PMS_P2;Temp;Humidity;BMP_temperature;BMP_pressure;BME280_temperature;BME280_humidity;BME280_pressure;Samples;Min_cycle;Max_cycle;Signal;HPM_P1;HPM_P2
2023/09/22 00:01:54;;;;;;;10.23;7.07;;;14.60;99.90;;;;;;4981350;28;20085;-35
2023/09/22 00:04:20;;;;;;;10.75;7.18;;;14.60;99.90;;;;;;4978022;28;20084;-35
2023/09/22 00:06:46;;;;;;;13.15;7.55;;;14.60;99.90;;;;;;4978380;28;20632;-34
2023/09/22 00:09:11;;;;;;;10.00;7.40;;;14.60;99.90;;;;;;4975703;28;20058;-34
2023/09/22 00:11:37;;;;;;;9.90;7.22;;;14.60;99.90;;;;;;4982459;28;20065;-34
2023/09/22 00:14:04;;;;;;;14.15;6.97;;;14.60;99.90;;;;;;4979047;28;20043;-35
2023/09/22 00:16:30;;;;;;;9.25;6.30;;;14.60;99.90;;;;;;4984189;28;20066;-35
2023/09/22 00:18:55;;;;;;;11.95;8.20;;;14.60;99.90;;;;;;4987262;28;20054;-35
2023/09/22 00:21:21;;;;;;;11.98;7.65;;;14.60;99.90;;;;;;4982003;28;20046;-35
2023/09/22 00:23:47;;;;;;;12.20;7.25;;;14.60;99.90;;;;;;4983196;28;20759;-35
2023/09/22 00:26:13;;;;;;;13.63;6.75;;;14.60;99.90;;;;;;4981298;28;20050;-35
2023/09/22 00:28:39;;;;;;;10.73;7.68;;;14.60;99.90;;;;;;4985075;28;20408;-35
2023/09/22 00:31:05;;;;;;;11.02;7.28;;;14.60;99.90;;;;;;4984554;28;20058;-35
2023/09/22 00:33:30;;;;;;;11.50;7.25;;;14.60;99.90;;;;;;4986616;28;20444;-35
2023/09/22 00:36:05;;;;;;;10.65;7.40;;;14.60;99.90;;;;;;4986427;28;20101;-35
2023/09/22 00:38:31;;;;;;;12.57;7.85;;;14.60;99.90;;;;;;4985031;28;20089;-35
2023/09/22 00:40:56;;;;;;;10.50;7.72;;;14.60;99.90;;;;;;4986419;28;20042;-36
2023/09/22 00:43:22;;;;;;;10.88;7.72;;;14.50;99.90;;;;;;4984792;28;20046;-34
2023/09/22 00:45:51;;;;;;;10.45;7.18;;;14.50;99.90;;;;;;4986312;28;20057;-34
2023/09/22 00:48:39;;;;;;;9.45;6.25;;;14.50;99.90;;;;;;4986240;28;20043;-34
2023/09/22 00:51:05;;;;;;;11.77;7.75;;;14.50;99.90;;;;;;4986079;28;20054;-34
2023/09/22 00:53:34;;;;;;;11.20;7.68;;;14.60;99.90;;;;;;4987547;28;20500;-34
2023/09/22 00:56:01;;;;;;;12.38;8.07;;;14.50;99.90;;;;;;4985771;28;20054;-35
2023/09/22 00:58:27;;;;;;;12.77;7.80;;;14.60;99.90;;;;;;5000057;28;20054;-35
2023/09/22 01:00:53;;;;;;;13.05;8.63;;;14.50;99.90;;;;;;4988132;28;20049;-34
2023/09/22 01:03:19;;;;;;;11.73;7.63;;;14.50;99.90;;;;;;4983458;28;20540;-34
2023/09/22 01:05:46;;;;;;;10.93;7.53;;;14.50;99.90;;;;;;4989407;28;20184;-34
2023/09/22 01:08:12;;;;;;;13.65;8.75;;;14.50;99.90;;;;;;4985381;28;20050;-34
2023/09/22 01:10:40;;;;;;;13.80;9.57;;;14.50;99.90;;;;;;4986093;28;20057;-34
2023/09/22 01:13:06;;;;;;;13.95;8.45;;;14.40;99.90;;;;;;4989399;28;20089;-34
2023/09/22 01:15:41;;;;;;;12.95;8.00;;;14.40;99.90;;;;;;4971380;28;20046;-34
2023/09/22 01:18:07;;;;;;;13.10;7.82;;;14.40;99.90;;;;;;4989764;28;20053;-34
2023/09/22 01:20:43;;;;;;;11.52;7.93;;;14.30;99.90;;;;;;4987755;28;20057;-34
2023/09/22 01:23:13;;;;;;;12.18;8.02;;;14.30;99.90;;;;;;4988225;28;20577;-34
2023/09/22 01:25:43;;;;;;;11.88;7.95;;;14.30;99.90;;;;;;4987614;28;20046;-34
2023/09/22 01:28:10;;;;;;;11.18;7.32;;;14.30;99.90;;;;;;4984823;28;20073;-34
2023/09/22 01:30:36;;;;;;;10.00;6.45;;;14.20;99.90;;;;;;4984327;28;20043;-34
2023/09/22 01:33:04;;;;;;;10.13;6.18;;;14.20;99.90;;;;;;4989218;28;20125;-34
2023/09/22 01:35:35;;;;;;;9.30;5.80;;;14.10;99.90;;;;;;4985183;28;20046;-34
2023/09/22 01:38:11;;;;;;;10.82;6.20;;;14.00;99.90;;;;;;4985695;28;20042;-33
2023/09/22 01:40:38;;;;;;;9.63;6.20;;;14.00;99.90;;;;;;4983519;28;20073;-34
2023/09/22 01:43:04;;;;;;;12.43;6.10;;;14.00;99.90;;;;;;4984625;28;20043;-34
2023/09/22 01:45:29;;;;;;;10.90;6.28;;;14.00;99.90;;;;;;4983384;28;20414;-34
2023/09/22 01:47:55;;;;;;;9.20;5.55;;;13.90;99.90;;;;;;4983719;28;20508;-34
2023/09/22 01:50:21;;;;;;;10.43;6.65;;;13.90;99.90;;;;;;4987628;28;20055;-34
2023/09/22 01:52:46;;;;;;;9.10;5.43;;;13.90;99.90;;;;;;4985559;28;20047;-34
2023/09/22 01:55:12;;;;;;;11.68;6.13;;;13.90;99.90;;;;;;4989917;28;20466;-35
2023/09/22 01:57:38;;;;;;;9.68;6.28;;;13.90;99.90;;;;;;4986974;28;20472;-34
2023/09/22 02:00:06;;;;;;;11.75;6.00;;;13.90;99.90;;;;;;4981435;28;20065;-35
2023/09/22 02:02:34;;;;;;;10.68;6.60;;;13.90;99.90;;;;;;4964434;28;20090;-35
2023/09/22 02:05:00;;;;;;;11.10;6.85;;;13.80;99.90;;;;;;4997616;28;20058;-35
2023/09/22 02:07:26;;;;;;;11.60;6.15;;;13.80;99.90;;;;;;4987569;28;20086;-35
2023/09/22 02:09:52;;;;;;;12.07;6.70;;;13.80;99.90;;;;;;4987984;28;20058;-35
2023/09/22 02:12:17;;;;;;;11.57;7.05;;;13.70;99.90;;;;;;4979891;28;20096;-35
2023/09/22 02:14:43;;;;;;;10.20;6.07;;;13.70;99.90;;;;;;4985396;28;20499;-35
2023/09/22 02:17:09;;;;;;;11.38;6.43;;;13.70;99.90;;;;;;4981790;28;20050;-36
2023/09/22 02:19:35;;;;;;;11.10;6.80;;;13.60;99.90;;;;;;4984999;28;20054;-35
2023/09/22 02:22:01;;;;;;;11.80;6.68;;;13.60;99.90;;;;;;4985944;28;20062;-35
2023/09/22 02:24:27;;;;;;;14.27;7.05;;;13.60;99.90;;;;;;4986467;28;20050;-35
2023/09/22 02:26:52;;;;;;;12.45;6.70;;;13.60;99.90;;;;;;4980571;28;20102;-34
2023/09/22 02:29:18;;;;;;;13.23;7.38;;;13.70;99.90;;;;;;4977677;28;20050;-34
2023/09/22 02:31:43;;;;;;;13.30;6.15;;;13.60;99.90;;;;;;4978654;28;20050;-34
2023/09/22 02:34:09;;;;;;;9.65;5.43;;;13.60;99.90;;;;;;4987172;28;20042;-34
2023/09/22 02:36:35;;;;;;;9.63;5.65;;;13.70;99.90;;;;;;4985891;28;20083;-34
2023/09/22 02:39:00;;;;;;;11.02;5.05;;;13.60;99.90;;;;;;4986842;28;20054;-34
2023/09/22 02:41:26;;;;;;;8.50;4.22;;;13.60;99.90;;;;;;4984374;28;20105;-34
2023/09/22 02:43:52;;;;;;;6.80;3.53;;;13.60;99.90;;;;;;4983087;28;20046;-34
2023/09/22 02:46:17;;;;;;;7.65;2.90;;;13.60;99.90;;;;;;4985999;28;20085;-34
2023/09/22 02:48:45;;;;;;;8.07;2.78;;;13.60;99.90;;;;;;4984440;28;20142;-35
2023/09/22 02:51:11;;;;;;;7.40;3.05;;;13.50;99.90;;;;;;4982124;28;20058;-35
2023/09/22 02:53:36;;;;;;;11.07;4.22;;;13.50;99.90;;;;;;4985708;28;20187;-34
2023/09/22 02:56:05;;;;;;;10.55;4.63;;;13.50;99.90;;;;;;4986971;28;20061;-34
2023/09/22 02:58:31;;;;;;;10.27;5.20;;;13.50;99.90;;;;;;4989330;28;20042;-34
2023/09/22 03:00:56;;;;;;;9.27;4.90;;;13.40;99.90;;;;;;4987412;28;20120;-34
2023/09/22 03:03:22;;;;;;;12.27;5.65;;;13.30;99.90;;;;;;4992555;28;20621;-35
2023/09/22 03:05:48;;;;;;;10.85;5.10;;;13.30;99.90;;;;;;4995573;28;20465;-34
2023/09/22 03:08:13;;;;;;;8.13;5.05;;;13.30;99.90;;;;;;4990261;28;20039;-35
2023/09/22 03:10:39;;;;;;;9.98;4.75;;;13.30;99.90;;;;;;4989637;28;20046;-34
2023/09/22 03:13:05;;;;;;;14.50;6.07;;;13.30;99.90;;;;;;4990795;28;20050;-34
2023/09/22 03:15:31;;;;;;;10.55;5.57;;;13.30;99.90;;;;;;4970518;28;20504;-34
2023/09/22 03:17:57;;;;;;;14.70;6.57;;;13.40;99.90;;;;;;5006967;28;20108;-34
2023/09/22 03:20:22;;;;;;;14.05;7.10;;;13.40;99.90;;;;;;4990453;28;20057;-34
2023/09/22 03:22:48;;;;;;;16.45;6.78;;;13.40;99.90;;;;;;4991974;28;20436;-34
2023/09/22 03:25:14;;;;;;;16.75;8.35;;;13.40;99.90;;;;;;4991839;28;20416;-39
2023/09/22 03:27:40;;;;;;;14.75;8.13;;;13.40;99.90;;;;;;4990565;28;20050;-34
2023/09/22 03:30:08;;;;;;;17.48;8.57;;;13.50;99.90;;;;;;4983999;28;20596;-34
2023/09/22 03:32:35;;;;;;;19.05;9.38;;;13.40;99.90;;;;;;4990310;28;20051;-34
2023/09/22 03:35:06;;;;;;;16.08;9.15;;;13.40;99.90;;;;;;4989010;28;20555;-34
2023/09/22 03:37:32;;;;;;;18.65;9.32;;;13.40;99.90;;;;;;4989863;28;20065;-34
2023/09/22 03:39:58;;;;;;;16.92;9.35;;;13.40;99.90;;;;;;4987508;28;20054;-34
2023/09/22 03:42:27;;;;;;;14.63;9.73;;;13.40;99.90;;;;;;4993164;28;20120;-34
2023/09/22 03:44:53;;;;;;;16.80;8.95;;;13.30;99.90;;;;;;4970370;28;20093;-34
2023/09/22 03:47:19;;;;;;;16.73;9.20;;;13.30;99.90;;;;;;4972557;28;20085;-34
2023/09/22 03:49:45;;;;;;;15.93;9.70;;;13.30;99.90;;;;;;5002381;28;20062;-34
2023/09/22 03:52:10;;;;;;;19.15;10.18;;;13.20;99.90;;;;;;4986975;28;20154;-34
2023/09/22 03:54:36;;;;;;;16.90;10.35;;;13.20;99.90;;;;;;4988335;28;20548;-34
2023/09/22 03:57:01;;;;;;;19.50;10.50;;;13.30;99.90;;;;;;4986092;28;20063;-35
2023/09/22 03:59:27;;;;;;;18.65;10.10;;;13.20;99.90;;;;;;4989321;28;20046;-42
2023/09/22 04:01:54;;;;;;;18.05;10.35;;;13.20;99.90;;;;;;5003379;28;20047;-34
2023/09/22 04:04:19;;;;;;;17.00;9.38;;;13.20;99.90;;;;;;4988100;28;20051;-34
2023/09/22 04:06:46;;;;;;;16.58;9.93;;;13.20;99.90;;;;;;4984679;28;20478;-34
2023/09/22 04:09:11;;;;;;;17.15;10.23;;;13.20;99.90;;;;;;4982737;28;20094;-34
2023/09/22 04:11:37;;;;;;;17.83;10.05;;;13.20;99.90;;;;;;4986366;28;20404;-34
2023/09/22 04:14:03;;;;;;;20.75;10.95;;;13.20;99.90;;;;;;4970359;28;20096;-34
2023/09/22 04:16:29;;;;;;;18.67;11.18;;;13.20;99.90;;;;;;4989834;28;20116;-34
2023/09/22 04:18:55;;;;;;;20.48;10.30;;;13.20;99.90;;;;;;4985834;28;20057;-34
2023/09/22 04:21:22;;;;;;;20.83;11.05;;;13.10;99.90;;;;;;4985648;28;20053;-34
2023/09/22 04:23:57;;;;;;;22.42;11.82;;;13.10;99.90;;;;;;4984401;28;20046;-34
2023/09/22 04:26:29;;;;;;;19.55;10.38;;;13.10;99.90;;;;;;4980865;28;20507;-34
2023/09/22 04:28:55;;;;;;;;;;;13.10;99.90;;;;;;4990035;28;20069;-34
2023/09/22 04:31:24;;;;;;;21.10;12.32;;;13.10;99.90;;;;;;4985790;28;19956;-35
2023/09/22 04:33:51;;;;;;;22.15;12.45;;;13.20;99.90;;;;;;4988563;28;20060;-34
2023/09/22 04:36:18;;;;;;;21.33;11.88;;;13.10;99.90;;;;;;4989085;28;20555;-35
2023/09/22 04:38:45;;;;;;;21.33;11.68;;;13.10;99.90;;;;;;4961169;28;20054;-35
2023/09/22 04:41:11;;;;;;;23.30;12.88;;;13.10;99.90;;;;;;4944589;28;20485;-34
2023/09/22 04:43:36;;;;;;;21.50;12.35;;;13.10;99.90;;;;;;4980351;28;20105;-34
2023/09/22 04:46:02;;;;;;;20.85;11.70;;;13.10;99.90;;;;;;4948221;28;20059;-34
2023/09/22 04:48:28;;;;;;;22.88;11.73;;;13.10;99.90;;;;;;4947467;28;20197;-34
2023/09/22 04:50:54;;;;;;;19.95;11.23;;;13.10;99.90;;;;;;4951276;28;20126;-34
2023/09/22 04:53:20;;;;;;;20.27;11.70;;;13.10;99.90;;;;;;4945101;28;20501;-34
2023/09/22 04:55:47;;;;;;;20.38;11.43;;;13.00;99.90;;;;;;4945031;28;20546;-34
2023/09/22 04:58:14;;;;;;;20.65;12.40;;;13.00;99.90;;;;;;4940916;28;20043;-34
2023/09/22 05:00:40;;;;;;;21.17;11.20;;;13.10;99.90;;;;;;4939455;28;20561;-34
2023/09/22 05:03:07;;;;;;;21.80;12.20;;;13.00;99.90;;;;;;4938115;28;20055;-35
2023/09/22 05:05:33;;;;;;;21.00;11.68;;;13.00;99.90;;;;;;4940082;28;20051;-34
2023/09/22 05:07:59;;;;;;;21.90;12.00;;;13.00;99.90;;;;;;4941575;28;20102;-34
2023/09/22 05:10:25;;;;;;;23.42;11.85;;;13.00;99.90;;;;;;4939431;28;20051;-34
2023/09/22 05:12:52;;;;;;;19.63;10.52;;;13.00;99.90;;;;;;4938576;28;20513;-34
2023/09/22 05:15:21;;;;;;;18.80;10.07;;;13.00;99.90;;;;;;4939980;28;20066;-34
2023/09/22 05:17:46;;;;;;;17.25;9.93;;;13.00;99.90;;;;;;4940687;28;20046;-34
2023/09/22 05:20:15;;;;;;;17.20;10.20;;;13.00;99.90;;;;;;4941878;28;20402;-35
2023/09/22 05:22:41;;;;;;;18.83;9.93;;;13.00;99.90;;;;;;4938329;28;20078;-34
2023/09/22 05:25:08;;;;;;;18.02;9.93;;;13.00;99.90;;;;;;4943171;28;20500;-34
2023/09/22 05:27:35;;;;;;;20.23;9.10;;;12.90;99.90;;;;;;4946769;28;20421;-34
2023/09/22 05:30:02;;;;;;;15.82;9.88;;;13.00;99.90;;;;;;4948169;28;20059;-34
2023/09/22 05:32:28;;;;;;;17.63;9.27;;;12.90;99.90;;;;;;4948175;28;20416;-34
2023/09/22 05:34:53;;;;;;;15.50;8.18;;;12.90;99.90;;;;;;4947365;28;20054;-34
2023/09/22 05:37:19;;;;;;;17.25;9.65;;;12.90;99.90;;;;;;4943965;28;21390;-34
2023/09/22 05:39:45;;;;;;;16.73;8.68;;;12.90;99.90;;;;;;4973401;28;20068;-34
2023/09/22 05:42:11;;;;;;;16.83;8.52;;;12.90;99.90;;;;;;4987876;28;20050;-34
2023/09/22 05:44:37;;;;;;;15.30;8.45;;;12.90;99.90;;;;;;4986166;28;20100;-35
2023/09/22 05:47:03;;;;;;;15.25;8.40;;;12.90;99.90;;;;;;4982419;28;20181;-34
2023/09/22 05:49:29;;;;;;;14.15;7.40;;;12.90;99.90;;;;;;4992362;28;20042;-34
2023/09/22 05:51:54;;;;;;;23.60;8.23;;;12.90;99.90;;;;;;4974660;28;20056;-35
2023/09/22 05:54:20;;;;;;;15.60;7.35;;;12.90;99.90;;;;;;4973437;28;21532;-34
2023/09/22 05:56:47;;;;;;;14.48;7.55;;;13.00;99.90;;;;;;4980327;28;20086;-34
2023/09/22 05:59:13;;;;;;;16.23;8.45;;;13.00;99.90;;;;;;4995926;28;20058;-34
2023/09/22 06:01:39;;;;;;;15.60;7.88;;;13.00;99.90;;;;;;4982343;28;20049;-35
2023/09/22 06:04:05;;;;;;;17.30;7.65;;;13.00;99.90;;;;;;4981605;28;20184;-34
2023/09/22 06:06:34;;;;;;;15.65;7.88;;;13.00;99.90;;;;;;4982853;28;20050;-34
2023/09/22 06:09:00;;;;;;;15.43;7.50;;;13.00;99.90;;;;;;4982393;28;20112;-34
2023/09/22 06:11:26;;;;;;;19.63;7.95;;;13.10;99.90;;;;;;4978535;28;20050;-34
2023/09/22 06:13:52;;;;;;;14.55;7.43;;;13.10;99.90;;;;;;4978298;28;20991;-34
2023/09/22 06:16:18;;;;;;;13.93;7.57;;;13.10;99.90;;;;;;4980847;28;20054;-34
2023/09/22 06:18:44;;;;;;;14.60;7.25;;;13.10;99.90;;;;;;4981563;28;20515;-35
2023/09/22 06:21:10;;;;;;;15.00;7.40;;;13.20;99.90;;;;;;4987395;28;20042;-35
2023/09/22 06:23:36;;;;;;;15.25;7.30;;;13.20;99.90;;;;;;4985204;28;20057;-35
2023/09/22 06:26:10;;;;;;;13.75;7.35;;;13.20;99.90;;;;;;4966429;28;20523;-34
2023/09/22 06:28:36;;;;;;;14.65;6.90;;;13.30;99.90;;;;;;4987401;28;20069;-34
2023/09/22 06:31:03;;;;;;;15.45;7.03;;;13.30;99.90;;;;;;4989675;28;20104;-35
2023/09/22 06:33:32;;;;;;;12.43;7.10;;;13.30;99.90;;;;;;4986324;28;20497;-35
2023/09/22 06:36:03;;;;;;;17.00;7.55;;;13.30;99.90;;;;;;4990606;28;20065;-35
2023/09/22 06:38:32;;;;;;;11.52;7.05;;;13.30;99.90;;;;;;4989004;28;20050;-35
2023/09/22 06:40:59;;;;;;;13.75;7.05;;;13.30;99.90;;;;;;4986995;28;20061;-35
2023/09/22 06:43:25;;;;;;;14.15;7.10;;;13.40;99.90;;;;;;4987612;28;20125;-35
2023/09/22 06:45:52;;;;;;;16.85;7.80;;;13.40;99.90;;;;;;4988697;28;20125;-35
2023/09/22 06:48:25;;;;;;;14.88;7.95;;;13.40;99.90;;;;;;4991726;28;20061;-35
2023/09/22 06:50:52;;;;;;;16.95;8.13;;;13.40;99.90;;;;;;4987345;28;20054;-35
2023/09/22 06:53:24;;;;;;;14.63;7.20;;;13.40;99.90;;;;;;4970445;28;20515;-35
2023/09/22 06:55:59;;;;;;;13.95;7.55;;;13.50;99.90;;;;;;4987571;28;20489;-35
2023/09/22 06:58:25;;;;;;;11.38;6.60;;;13.50;99.90;;;;;;4979224;28;20054;-35
2023/09/22 07:00:51;;;;;;;14.50;6.05;;;13.50;99.90;;;;;;4976531;28;20050;-35
2023/09/22 07:03:16;;;;;;;12.88;6.45;;;13.60;99.90;;;;;;4981082;28;20058;-35
2023/09/22 07:05:43;;;;;;;10.50;5.13;;;13.60;99.90;;;;;;4978768;28;20133;-35
2023/09/22 07:08:09;;;;;;;11.18;6.38;;;13.60;99.90;;;;;;4979847;28;20793;-35
2023/09/22 07:10:35;;;;;;;11.75;6.05;;;13.60;99.90;;;;;;4982137;28;20050;-35
2023/09/22 07:13:01;;;;;;;10.90;5.93;;;13.60;99.90;;;;;;4979476;28;20589;-35
2023/09/22 07:15:28;;;;;;;9.48;5.90;;;13.70;99.90;;;;;;4980386;28;20078;-36
2023/09/22 07:17:53;;;;;;;11.40;5.85;;;13.80;99.90;;;;;;4989603;28;20159;-35
2023/09/22 07:20:19;;;;;;;9.93;5.30;;;13.80;99.90;;;;;;4988846;28;20058;-35
2023/09/22 07:22:47;;;;;;;12.63;6.43;;;13.90;99.90;;;;;;4987237;28;20061;-36
2023/09/22 07:25:14;;;;;;;10.98;5.88;;;14.00;99.90;;;;;;4986798;28;20408;-35
2023/09/22 07:27:42;;;;;;;11.35;6.10;;;14.10;99.90;;;;;;4987551;28;20070;-35
2023/09/22 07:30:09;;;;;;;10.43;5.10;;;14.10;99.90;;;;;;4987534;28;20554;-35
2023/09/22 07:32:36;;;;;;;8.35;5.50;;;14.10;99.90;;;;;;4985489;28;20104;-35
2023/09/22 07:35:02;;;;;;;8.07;4.43;;;14.10;99.90;;;;;;4986093;28;20054;-35
2023/09/22 07:37:27;;;;;;;9.82;5.25;;;14.10;99.90;;;;;;4988537;28;20047;-35
2023/09/22 07:39:53;;;;;;;11.48;5.05;;;14.10;99.90;;;;;;4989196;28;20653;-35
2023/09/22 07:42:19;;;;;;;11.93;5.43;;;14.10;99.90;;;;;;4987375;28;20150;-35
2023/09/22 07:44:45;;;;;;;10.73;4.95;;;14.10;99.90;;;;;;4985803;28;20534;-35
2023/09/22 07:47:10;;;;;;;9.10;4.45;;;14.20;99.90;;;;;;4986746;28;20085;-35
2023/09/22 07:49:43;;;;;;;9.48;4.35;;;14.20;99.90;;;;;;4992307;28;20091;-35
2023/09/22 07:52:10;;;;;;;;;;;14.20;99.90;;;;;;4982619;28;20504;-35
2023/09/22 07:54:37;;;;;;;7.90;3.45;;;14.30;99.90;;;;;;4990930;28;19924;-35
2023/09/22 07:57:03;;;;;;;6.35;2.90;;;14.30;99.90;;;;;;4985567;28;20062;-35
2023/09/22 07:59:31;;;;;;;4.28;2.47;;;14.30;99.90;;;;;;4985099;28;20054;-34
2023/09/22 08:01:59;;;;;;;6.13;2.70;;;14.30;99.90;;;;;;4988744;28;20424;-35
2023/09/22 08:04:26;;;;;;;4.13;2.20;;;14.40;99.90;;;;;;4986751;28;20077;-35
2023/09/22 08:06:52;;;;;;;5.22;1.92;;;14.50;99.90;;;;;;4967350;28;20060;-36
2023/09/22 08:09:18;;;;;;;3.00;1.60;;;14.60;99.90;;;;;;4986142;28;20050;-35
2023/09/22 08:11:44;;;;;;;2.35;1.52;;;14.70;99.90;;;;;;4988361;28;20065;-35
2023/09/22 08:14:10;;;;;;;2.55;1.58;;;14.80;99.90;;;;;;4989813;28;20078;-35
2023/09/22 08:16:35;;;;;;;5.20;2.65;;;14.90;99.90;;;;;;4984975;28;20066;-35
2023/09/22 08:19:01;;;;;;;3.60;1.50;;;15.00;99.90;;;;;;4987674;28;20061;-35
2023/09/22 08:21:27;;;;;;;6.53;1.80;;;15.00;99.90;;;;;;4984853;28;20069;-35
2023/09/22 08:23:52;;;;;;;4.05;1.80;;;15.00;99.90;;;;;;4988009;28;20074;-35
2023/09/22 08:26:18;;;;;;;3.70;2.00;;;15.00;99.90;;;;;;4985483;28;20495;-35
2023/09/22 08:28:47;;;;;;;6.80;2.30;;;15.00;99.90;;;;;;4981878;28;20081;-36
2023/09/22 08:31:14;;;;;;;3.45;1.48;;;15.00;99.90;;;;;;4983736;28;20069;-36
2023/09/22 08:33:40;;;;;;;2.45;1.70;;;15.10;99.90;;;;;;4984562;28;20050;-36
2023/09/22 08:36:06;;;;;;;5.28;1.95;;;15.20;99.90;;;;;;4984027;28;20051;-35
2023/09/22 08:38:35;;;;;;;2.58;1.30;;;15.30;99.90;;;;;;4988421;28;20049;-35
2023/09/22 08:41:04;;;;;;;5.53;1.77;;;15.40;99.90;;;;;;4970631;28;20400;-36
2023/09/22 08:43:32;;;;;;;2.67;1.60;;;15.40;99.90;;;;;;4989963;28;20053;-36
2023/09/22 08:45:59;;;;;;;2.75;1.48;;;15.40;99.90;;;;;;4987647;28;20070;-36
2023/09/22 08:48:25;;;;;;;2.72;1.35;;;15.40;99.90;;;;;;4988616;28;20488;-36
2023/09/22 08:50:51;;;;;;;6.03;1.30;;;15.40;99.90;;;;;;4985298;28;20097;-35
2023/09/22 08:53:17;;;;;;;3.00;1.27;;;15.30;99.90;;;;;;4985553;28;20124;-35
2023/09/22 08:55:43;;;;;;;3.85;1.38;;;15.20;99.90;;;;;;4987233;28;20159;-37
2023/09/22 08:58:09;;;;;;;1.95;1.35;;;15.20;99.90;;;;;;4976113;28;20145;-35
2023/09/22 09:00:35;;;;;;;4.05;1.50;;;15.30;99.90;;;;;;4979307;28;20124;-35
2023/09/22 09:03:10;;;;;;;2.97;1.48;;;15.40;99.90;;;;;;4979405;28;20046;-35
2023/09/22 09:05:38;;;;;;;3.65;1.20;;;15.40;99.90;;;;;;4978340;28;20054;-35
2023/09/22 09:08:23;;;;;;;2.53;1.30;;;15.40;99.90;;;;;;4980328;28;20046;-35
2023/09/22 09:10:49;;;;;;;1.88;1.08;;;15.40;99.90;;;;;;4975602;28;20047;-35
2023/09/22 09:13:17;;;;;;;2.17;1.02;;;15.40;99.90;;;;;;4978956;28;20073;-35
2023/09/22 09:15:48;;;;;;;4.07;1.52;;;15.30;99.90;;;;;;4980111;28;20550;-35
2023/09/22 09:18:16;;;;;;;2.80;1.15;;;15.30;99.90;;;;;;4979408;28;20420;-35
2023/09/22 09:20:43;;;;;;;4.35;0.90;;;15.20;99.90;;;;;;4977008;28;20061;-35
2023/09/22 09:23:17;;;;;;;4.20;1.00;;;15.00;99.90;;;;;;4975888;28;20065;-35
2023/09/22 09:25:50;;;;;;;2.05;0.80;;;15.00;99.90;;;;;;4978039;28;20046;-35
2023/09/22 09:28:17;;;;;;;2.80;0.82;;;14.90;99.90;;;;;;4986506;28;20064;-35
2023/09/22 09:30:54;;;;;;;1.85;0.90;;;14.80;99.90;;;;;;4984871;28;20146;-36
2023/09/22 09:33:28;;;;;;;1.27;0.73;;;14.90;99.90;;;;;;4981818;28;20054;-34
2023/09/22 09:35:55;;;;;;;2.28;0.70;;;15.00;99.90;;;;;;4985004;28;20057;-35
2023/09/22 09:38:28;;;;;;;2.03;0.90;;;15.00;99.90;;;;;;4980284;28;20058;-35
2023/09/22 09:40:55;;;;;;;2.53;0.60;;;15.00;99.90;;;;;;4979354;28;20561;-35
2023/09/22 09:43:21;;;;;;;1.55;0.60;;;15.00;99.90;;;;;;4984093;28;20205;-36
2023/09/22 09:45:50;;;;;;;2.00;1.00;;;15.10;99.90;;;;;;4986354;28;20529;-35
2023/09/22 09:48:18;;;;;;;5.78;0.80;;;15.20;99.90;;;;;;4982626;28;20706;-37
2023/09/22 09:50:46;;;;;;;3.53;0.80;;;15.40;99.90;;;;;;4987234;28;20141;-35
2023/09/22 09:53:27;;;;;;;2.80;0.93;;;15.40;99.90;;;;;;4987678;28;20049;-35
2023/09/22 09:55:58;;;;;;;1.52;0.70;;;15.60;99.90;;;;;;4985156;28;20225;-35
2023/09/22 09:58:30;;;;;;;1.67;0.73;;;15.70;99.90;;;;;;4976522;28;20108;-35
2023/09/22 10:00:57;;;;;;;8.43;1.00;;;15.90;99.90;;;;;;4986097;28;20516;-35
2023/09/22 10:03:25;;;;;;;2.70;0.82;;;16.00;99.90;;;;;;4980530;28;20049;-35
2023/09/22 10:05:52;;;;;;;3.40;1.10;;;16.00;99.90;;;;;;4985766;28;20531;-35
2023/09/22 10:08:22;;;;;;;1.90;1.20;;;15.90;99.90;;;;;;4983948;28;20132;-35
2023/09/22 10:10:49;;;;;;;2.75;1.30;;;16.00;99.90;;;;;;5002210;28;20111;-35
2023/09/22 10:13:15;;;;;;;2.97;1.00;;;16.00;99.90;;;;;;4981025;28;20104;-34
2023/09/22 10:16:00;;;;;;;1.90;0.90;;;16.00;99.90;;;;;;4984182;28;20141;-35
2023/09/22 10:18:45;;;;;;;3.60;0.82;;;16.10;99.90;;;;;;4982251;28;20055;-35
2023/09/22 10:21:29;;;;;;;1.48;0.70;;;16.20;99.90;;;;;;4989744;28;20097;-34
2023/09/22 10:24:17;;;;;;;1.13;0.50;;;16.20;99.90;;;;;;4997687;28;20054;-34
2023/09/22 10:27:07;;;;;;;1.67;0.47;;;16.40;99.90;;;;;;4979071;28;20425;-34
2023/09/22 10:29:33;;;;;;;4.88;0.50;;;16.50;99.90;;;;;;4985028;28;20047;-34
2023/09/22 10:32:26;;;;;;;1.30;0.55;;;16.50;99.90;;;;;;4981283;28;20050;-34
2023/09/22 10:35:05;;;;;;;1.85;0.50;;;16.60;99.90;;;;;;5002677;28;20050;-34
2023/09/22 10:37:33;;;;;;;3.33;0.80;;;16.80;99.90;;;;;;4982432;28;20085;-35
2023/09/22 10:40:12;;;;;;;1.40;0.52;;;16.90;99.90;;;;;;4980232;28;20484;-35
2023/09/22 10:42:46;;;;;;;1.95;0.63;;;17.00;99.90;;;;;;4984635;28;20100;-35
2023/09/22 10:45:13;;;;;;;1.23;0.60;;;17.10;99.90;;;;;;4983597;28;20072;-34
2023/09/22 10:47:41;;;;;;;3.25;0.80;;;17.00;99.90;;;;;;4982256;28;20046;-34
2023/09/22 10:50:19;;;;;;;1.85;0.73;;;16.80;99.90;;;;;;4982711;28;20145;-34
2023/09/22 10:52:56;;;;;;;2.45;0.70;;;16.80;99.90;;;;;;4982049;28;20558;-34
2023/09/22 10:55:31;;;;;;;2.25;1.33;;;16.90;99.90;;;;;;4981393;28;20583;-35
2023/09/22 10:57:58;;;;;;;2.05;0.80;;;17.00;99.90;;;;;;4976785;28;20070;-35
2023/09/22 11:00:25;;;;;;;1.58;0.80;;;17.20;99.90;;;;;;4980705;28;20058;-35
2023/09/22 11:02:52;;;;;;;1.27;0.75;;;17.30;99.90;;;;;;4976610;28;20057;-34
2023/09/22 11:05:18;;;;;;;1.05;0.60;;;17.20;99.90;;;;;;4974807;28;20050;-34
2023/09/22 11:07:44;;;;;;;2.85;0.88;;;17.20;99.90;;;;;;4981073;28;20512;-34
2023/09/22 11:10:20;;;;;;;1.67;0.98;;;17.10;99.90;;;;;;4974971;28;20058;-34
2023/09/22 11:12:48;;;;;;;1.38;0.70;;;17.20;99.90;;;;;;4973483;28;20092;-34
2023/09/22 11:15:14;;;;;;;2.42;0.80;;;17.30;99.90;;;;;;4980347;28;20069;-35
2023/09/22 11:17:47;;;;;;;1.23;0.80;;;17.50;99.90;;;;;;4988247;28;20058;-34
2023/09/22 11:20:27;;;;;;;3.35;0.70;;;17.60;99.90;;;;;;4986067;28;20082;-34
2023/09/22 11:22:54;;;;;;;1.20;0.75;;;17.50;99.90;;;;;;4982856;28;20542;-35
2023/09/22 11:25:21;;;;;;;1.23;0.77;;;17.50;99.90;;;;;;4987463;28;20397;-35
2023/09/22 11:27:51;;;;;;;1.63;0.60;;;17.40;99.90;;;;;;4983830;28;20106;-34
2023/09/22 11:30:27;;;;;;;1.10;0.63;;;17.30;99.90;;;;;;4982350;28;20054;-34
2023/09/22 11:32:54;;;;;;;1.33;0.90;;;17.40;99.90;;;;;;4998218;28;20492;-34
2023/09/22 11:35:33;;;;;;;3.25;0.50;;;17.50;99.90;;;;;;4990182;28;20050;-34
2023/09/22 11:38:00;;;;;;;3.83;0.93;;;17.50;99.90;;;;;;4980230;28;20065;-34
2023/09/22 11:40:28;;;;;;;1.25;0.63;;;17.60;99.90;;;;;;4983075;28;20054;-35
2023/09/22 11:42:54;;;;;;;1.17;0.77;;;17.70;99.90;;;;;;4988542;28;20519;-34
2023/09/22 11:45:24;;;;;;;2.42;0.70;;;17.60;99.90;;;;;;4986950;28;20493;-34
2023/09/22 11:48:03;;;;;;;1.08;0.57;;;17.70;99.90;;;;;;4987898;28;20054;-34
2023/09/22 11:50:30;;;;;;;1.45;0.60;;;17.80;99.90;;;;;;4988703;28;20093;-34
2023/09/22 11:53:17;;;;;;;2.05;0.63;;;17.80;99.90;;;;;;4969319;28;20057;-34
2023/09/22 11:55:47;;;;;;;1.38;0.60;;;17.80;99.90;;;;;;4986364;28;20066;-34
2023/09/22 11:58:14;;;;;;;1.65;0.73;;;17.80;99.90;;;;;;4990176;28;20065;-34
2023/09/22 12:00:40;;;;;;;2.17;0.80;;;17.50;99.90;;;;;;4988624;28;20516;-34
2023/09/22 12:03:06;;;;;;;1.00;0.57;;;17.40;99.90;;;;;;4987790;28;20057;-34
2023/09/22 12:05:36;;;;;;;3.05;0.70;;;17.30;99.90;;;;;;4990177;28;20054;-34
2023/09/22 12:08:04;;;;;;;1.88;0.60;;;17.20;99.90;;;;;;4967563;28;20419;-36
2023/09/22 12:10:29;;;;;;;0.73;0.50;;;17.20;99.90;;;;;;4989246;28;20560;-36
2023/09/22 12:12:55;;;;;;;1.83;0.70;;;17.10;99.90;;;;;;4988518;28;20149;-35
2023/09/22 12:15:21;;;;;;;1.85;0.50;;;17.00;99.90;;;;;;4991026;28;20416;-35
2023/09/22 12:17:46;;;;;;;2.05;1.23;;;17.00;99.90;;;;;;4987635;28;20062;-36
2023/09/22 12:20:12;;;;;;;2.40;0.70;;;17.10;99.90;;;;;;4989491;28;20403;-35
2023/09/22 12:22:38;;;;;;;1.27;0.60;;;17.30;99.90;;;;;;4986611;28;20053;-35
2023/09/22 12:25:06;;;;;;;1.40;0.55;;;17.60;99.90;;;;;;4988238;28;20058;-35
2023/09/22 12:27:32;;;;;;;1.55;0.70;;;17.90;99.90;;;;;;4985782;28;20507;-35
2023/09/22 12:29:59;;;;;;;1.00;0.68;;;18.30;99.90;;;;;;4987619;28;20137;-36
2023/09/22 12:32:25;;;;;;;1.85;0.60;;;18.40;99.90;;;;;;4986502;28;20073;-35
2023/09/22 12:34:53;;;;;;;4.03;0.90;;;18.40;99.90;;;;;;4987165;28;20186;-35
2023/09/22 12:37:19;;;;;;;1.88;0.60;;;18.40;99.90;;;;;;4984493;28;20106;-35
2023/09/22 12:39:44;;;;;;;1.02;0.60;;;18.20;99.90;;;;;;4985140;28;20092;-35
2023/09/22 12:42:10;;;;;;;2.08;0.75;;;18.30;99.90;;;;;;4988970;28;20050;-36
2023/09/22 12:44:37;;;;;;;1.27;0.75;;;18.50;99.90;;;;;;4985575;28;20054;-35